Time;durP1;ratioP1;P1;durP2;ratioP2;P2;SDS_P1;SDS_P2;PMS_P1;PMS_P2;Temp;Humidity;BMP_temperature;BMP_pressure;BME280_temperature;BME280_humidity;BME280_pressure;Samples;Min_cycle;Max_cycle;Signal;HPM_P1;HPM_P2
2022/04/16 00:01:21;;;;;;;20.02;14.07;;;;;;;6.83;100.00;101253.33;2817839;84;21481;-86
2022/04/16 00:05:23;;;;;;;16.10;12.40;;;;;;;6.83;100.00;101259.06;2823383;83;21050;-88
2022/04/16 00:09:24;;;;;;;15.38;12.15;;;;;;;6.73;100.00;101273.70;2827006;83;21506;-87
2022/04/16 00:13:25;;;;;;;12.25;11.03;;;;;;;6.65;100.00;101280.20;2818168;83;21098;-87
2022/04/16 00:17:26;;;;;;;17.45;12.50;;;;;;;6.57;100.00;101279.74;2823926;83;21059;-85
2022/04/16 00:21:28;;;;;;;13.15;10.28;;;;;;;6.47;100.00;101278.46;2822255;84;21007;-86
2022/04/16 00:25:32;;;;;;;32.93;11.97;;;;;;;6.39;100.00;101286.80;2842401;79;21169;-87
2022/04/16 00:29:32;;;;;;;18.23;11.63;;;;;;;6.36;100.00;101289.56;2840567;82;21030;-86
2022/04/16 00:33:33;;;;;;;15.88;10.60;;;;;;;6.35;100.00;101290.04;2840524;82;21030;-85
2022/04/16 00:37:34;;;;;;;12.70;9.58;;;;;;;6.21;100.00;101297.31;2837112;83;21456;-87
2022/04/16 00:41:36;;;;;;;16.67;10.10;;;;;;;6.13;100.00;101298.98;2837508;81;21026;-86
2022/04/16 00:45:37;;;;;;;11.18;7.58;;;;;;;6.13;100.00;101298.98;2928367;79;21021;-84
2022/04/16 00:49:38;;;;;;;11.93;8.38;;;;;;;6.06;100.00;101304.63;2939029;79;20962;-84
2022/04/16 00:53:41;;;;;;;14.65;7.97;;;;;;;6.03;100.00;101302.97;2936120;80;21132;-84
2022/04/16 00:57:42;;;;;;;16.93;9.58;;;;;;;6.02;100.00;101301.75;2927180;80;21043;-85
2022/04/16 01:01:43;;;;;;;14.28;7.55;;;;;;;6.00;99.14;101301.32;2934949;79;21028;-85
2022/04/16 01:05:44;;;;;;;9.98;6.85;;;;;;;5.94;99.25;101311.31;2910029;81;21030;-85
2022/04/16 01:09:46;;;;;;;10.80;6.40;;;;;;;5.94;99.48;101313.47;2908820;79;21025;-83
2022/04/16 01:22:50;;;;;;;5.55;4.97;;;;;;;5.79;98.65;101336.16;2891945;79;21105;-85
2022/04/16 01:26:51;;;;;;;4.03;3.60;;;;;;;5.75;98.44;101340.31;2777747;84;21108;-86
2022/04/16 01:30:54;;;;;;;6.47;5.60;;;;;;;5.66;97.44;101345.54;2778122;84;21050;-85
2022/04/16 01:34:55;;;;;;;4.50;4.05;;;;;;;5.65;97.73;101359.22;2758811;83;21065;-85
2022/04/16 01:38:57;;;;;;;5.25;3.98;;;;;;;5.62;97.71;101363.31;2777877;84;21097;-85
2022/04/16 01:42:58;;;;;;;4.05;3.25;;;;;;;5.61;97.71;101363.38;2771876;85;21069;-85
2022/04/16 01:46:59;;;;;;;7.05;5.50;;;;;;;5.62;97.83;101374.33;2778472;84;21054;-84
2022/04/16 01:51:00;;;;;;;7.50;4.53;;;;;;;5.60;97.45;101380.13;2776405;84;21042;-84
2022/04/16 01:55:03;;;;;;;8.00;4.28;;;;;;;5.57;96.45;101383.75;2776564;84;21057;-85
2022/04/16 01:59:04;;;;;;;6.58;4.40;;;;;;;5.55;96.62;101376.36;2777084;83;21109;-84
2022/04/16 02:03:05;;;;;;;5.95;4.05;;;;;;;5.49;95.77;101383.23;2778369;84;21061;-84
2022/04/16 02:07:07;;;;;;;9.38;4.50;;;;;;;5.51;96.71;101382.27;2776787;84;21014;-85
2022/04/16 02:11:08;;;;;;;5.65;4.12;;;;;;;5.54;96.95;101386.53;2775270;85;21073;-84
2022/04/16 02:15:10;;;;;;;7.60;3.95;;;;;;;5.48;96.09;101392.08;2776912;84;21057;-85
2022/04/16 02:19:11;;;;;;;18.42;4.58;;;;;;;5.46;95.72;101384.22;2777370;84;21065;-85
2022/04/16 02:23:13;;;;;;;4.45;3.75;;;;;;;5.43;95.65;101390.95;2770846;85;21511;-84
2022/04/16 02:27:14;;;;;;;5.33;3.70;;;;;;;5.41;96.24;101404.67;2727632;86;21070;-84
2022/04/16 02:31:15;;;;;;;4.60;3.35;;;;;;;5.37;95.32;101388.58;2740003;85;21085;-83
2022/04/16 02:35:17;;;;;;;3.33;3.02;;;;;;;5.26;94.62;101390.35;2718484;85;21112;-85
2022/04/16 02:39:18;;;;;;;4.05;3.65;;;;;;;5.26;94.75;101400.43;2717504;86;21419;-85
2022/04/16 02:43:19;;;;;;;6.42;3.92;;;;;;;5.23;95.07;101391.33;2725576;86;21589;-84
2022/04/16 02:47:20;;;;;;;4.30;3.90;;;;;;;5.13;94.35;101390.85;2726064;86;21088;-84
2022/04/16 02:51:22;;;;;;;10.63;2.83;;;;;;;5.05;93.80;101394.28;2738119;85;21570;-83
2022/04/16 02:55:24;;;;;;;4.55;3.00;;;;;;;4.98;93.00;101384.88;2726174;86;21379;-85
2022/04/16 02:59:27;;;;;;;3.60;3.17;;;;;;;4.92;92.62;101391.73;2716869;86;21041;-84
2022/04/16 03:03:29;;;;;;;4.08;3.47;;;;;;;4.86;92.93;101392.39;2724325;86;21049;-84
2022/04/16 03:07:30;;;;;;;6.17;3.80;;;;;;;4.90;92.96;101386.98;2716549;86;21045;-84
2022/04/16 03:11:31;;;;;;;5.30;4.25;;;;;;;4.95;94.00;101392.92;2716368;86;21062;-84
2022/04/16 03:19:54;;;;;;;5.33;2.80;;;;;;;4.89;92.36;101400.61;2728692;86;21077;-83
2022/04/16 03:23:55;;;;;;;3.45;2.92;;;;;;;4.84;92.25;101415.77;2747967;85;22315;-83
2022/04/16 03:27:58;;;;;;;3.05;2.45;;;;;;;4.84;92.51;101423.23;2755297;84;21014;-84
2022/04/16 03:31:59;;;;;;;5.03;4.42;;;;;;;4.78;90.37;101426.09;2747683;85;21026;-83
2022/04/16 03:36:00;;;;;;;4.50;2.62;;;;;;;4.76;90.76;101433.20;2755480;84;21035;-80
2022/04/16 03:40:06;;;;;;;2.67;2.15;;;;;;;4.68;89.39;101440.56;2756437;85;21057;-83
2022/04/16 03:44:07;;;;;;;4.50;2.85;;;;;;;4.63;88.96;101458.34;2757832;85;21523;-82
2022/04/16 03:48:09;;;;;;;5.25;2.58;;;;;;;4.56;89.30;101448.48;2758815;85;21334;-83
2022/04/16 03:52:10;;;;;;;6.58;3.60;;;;;;;4.57;90.46;101463.38;2756282;85;21049;-82
2022/04/16 04:00:30;;;;;;;3.25;2.70;;;;;;;4.54;90.90;101466.13;2756560;85;21066;-82
2022/04/16 04:04:32;;;;;;;3.95;2.58;;;;;;;4.49;90.33;101469.38;2756350;84;21046;-82
2022/04/16 04:08:33;;;;;;;4.72;2.92;;;;;;;4.45;89.57;101480.51;2756604;85;21573;-82
2022/04/16 04:12:35;;;;;;;7.60;3.42;;;;;;;4.39;89.48;101476.31;2756862;84;21609;-83
2022/04/16 04:16:36;;;;;;;4.83;3.17;;;;;;;4.39;90.27;101492.56;2754794;85;21078;-80
2022/04/16 04:20:37;;;;;;;3.50;2.45;;;;;;;4.32;89.59;101499.83;2759298;84;21086;-82
2022/04/16 04:24:40;;;;;;;6.37;2.98;;;;;;;4.28;89.82;101511.40;2752588;84;21959;-83
2022/04/16 04:28:41;;;;;;;8.43;3.92;;;;;;;4.25;89.06;101516.34;2762215;85;21094;-83
2022/04/16 04:32:43;;;;;;;7.53;3.80;;;;;;;4.22;89.04;101515.11;2777917;85;21345;-82
2022/04/16 04:36:44;;;;;;;4.95;3.40;;;;;;;4.19;89.68;101517.01;2776642;85;21066;-80
2022/04/16 04:40:45;;;;;;;3.42;2.05;;;;;;;4.19;89.97;101523.12;2777631;85;21043;-82
2022/04/16 04:44:46;;;;;;;5.15;3.00;;;;;;;4.21;89.84;101529.66;2765915;85;21062;-83
2022/04/16 04:48:47;;;;;;;6.15;3.08;;;;;;;4.23;90.25;101535.73;2767993;85;21705;-83
2022/04/16 04:52:48;;;;;;;5.62;2.47;;;;;;;4.21;90.04;101540.20;2777707;85;21007;-83
2022/04/16 04:56:49;;;;;;;3.08;2.77;;;;;;;4.27;90.27;101542.61;2777523;84;21102;-82
2022/04/16 05:00:50;;;;;;;6.03;4.17;;;;;;;4.21;89.81;101544.16;2772895;84;21051;-82
2022/04/16 05:04:51;;;;;;;5.58;3.30;;;;;;;4.22;90.39;101553.77;2777092;84;21154;-82
2022/04/16 05:08:52;;;;;;;4.20;3.80;;;;;;;4.24;88.97;101558.52;2777242;84;21015;-83
2022/04/16 05:12:57;;;;;;;4.15;3.52;;;;;;;4.30;90.04;101570.16;2777650;84;21039;-82
2022/04/16 05:16:59;;;;;;;5.85;3.33;;;;;;;4.31;90.00;101577.14;2777620;84;21015;-83
2022/04/16 05:21:01;;;;;;;11.22;3.75;;;;;;;4.36;89.66;101577.87;2756632;85;21098;-82
2022/04/16 05:25:03;;;;;;;8.13;4.28;;;;;;;4.47;89.06;101579.25;2769834;84;21062;-83
2022/04/16 05:29:07;;;;;;;8.20;3.40;;;;;;;4.50;89.97;101587.03;2759442;85;21039;-82
2022/04/16 05:34:18;;;;;;;7.03;3.70;;;;;;;4.45;88.85;101606.98;2744576;85;21071;-83
2022/04/16 05:37:11;;;;;;;2.33;2.22;;;;;;;4.51;88.91;101605.88;2756855;85;21070;-82
2022/04/16 05:41:12;;;;;;;3.98;3.22;;;;;;;4.54;89.44;101612.39;2759264;85;21011;-83
2022/04/16 05:45:16;;;;;;;5.60;3.58;;;;;;;4.60;89.10;101609.53;2759078;86;21065;-82
2022/04/16 05:49:17;;;;;;;4.55;3.65;;;;;;;4.63;89.06;101618.64;2756713;85;21058;-82
2022/04/16 05:53:19;;;;;;;10.15;3.52;;;;;;;4.57;88.35;101615.75;2756799;86;22169;-82
2022/04/16 05:57:22;;;;;;;8.73;4.33;;;;;;;4.62;89.42;101620.88;2757747;86;21038;-82
2022/04/16 06:01:23;;;;;;;7.72;4.20;;;;;;;4.61;88.82;101627.50;2757341;85;21110;-82
2022/04/16 06:05:25;;;;;;;5.67;2.83;;;;;;;4.62;88.00;101635.37;2761072;84;21015;-82
2022/04/16 06:09:26;;;;;;;3.67;2.60;;;;;;;4.73;89.31;101635.46;2748739;84;21620;-83
2022/04/16 06:13:30;;;;;;;4.42;3.37;;;;;;;4.70;87.61;101635.10;2735811;85;21578;-83
2022/04/16 06:17:30;;;;;;;4.22;2.72;;;;;;;4.78;87.94;101642.27;2750826;84;21305;-82
2022/04/16 06:21:31;;;;;;;5.42;3.35;;;;;;;4.82;87.73;101642.58;2756784;85;21102;-82
2022/04/16 06:25:33;;;;;;;4.30;2.92;;;;;;;4.85;87.69;101638.52;2764732;85;21065;-82
2022/04/16 06:29:34;;;;;;;6.42;4.60;;;;;;;4.91;88.00;101649.27;2776875;85;21062;-83
2022/04/16 06:33:35;;;;;;;5.90;3.02;;;;;;;4.89;87.36;101652.90;2776471;85;20999;-82
2022/04/16 06:37:38;;;;;;;10.95;3.17;;;;;;;4.92;85.95;101651.02;2777214;84;21172;-83
2022/04/16 06:41:39;;;;;;;7.25;3.05;;;;;;;4.94;86.84;101657.09;2776927;85;21616;-82
2022/04/16 06:45:40;;;;;;;3.77;3.33;;;;;;;5.00;87.17;101659.50;2777214;85;21629;-82
2022/04/16 06:49:41;;;;;;;7.17;3.45;;;;;;;5.02;87.45;101661.22;2777124;85;21645;-82
2022/04/16 06:53:43;;;;;;;3.15;2.75;;;;;;;5.21;87.87;101657.43;2777378;85;21117;-83
2022/04/16 06:57:44;;;;;;;3.27;2.62;;;;;;;5.34;86.89;101663.13;2777072;85;21548;-82
2022/04/16 07:01:45;;;;;;;5.08;3.45;;;;;;;5.53;85.56;101650.08;2777379;84;21038;-82
2022/04/16 07:05:46;;;;;;;4.15;3.22;;;;;;;5.75;85.91;101656.70;2760767;84;21010;-82
2022/04/16 07:09:48;;;;;;;3.33;2.60;;;;;;;5.88;85.17;101667.64;2769493;85;21018;-82
2022/04/16 07:13:49;;;;;;;4.53;3.45;;;;;;;5.90;84.15;101666.27;2752791;84;21046;-82
2022/04/16 07:17:50;;;;;;;3.87;2.75;;;;;;;5.96;84.78;101675.25;2776907;85;21045;-83
2022/04/16 07:21:51;;;;;;;4.83;3.80;;;;;;;5.96;83.40;101684.50;2767196;84;21584;-83
2022/04/16 07:25:52;;;;;;;7.95;3.75;;;;;;;5.97;82.79;101669.05;2766220;85;21054;-84
2022/04/16 07:29:58;;;;;;;6.87;3.33;;;;;;;5.99;82.37;101689.66;2752812;84;21075;-81
2022/04/16 07:33:56;;;;;;;5.55;4.95;;;;;;;5.90;80.04;101688.72;2748411;85;21051;-84
2022/04/16 07:37:57;;;;;;;7.35;4.08;;;;;;;5.89;82.33;101683.00;2740838;85;21065;-85
2022/04/16 07:41:58;;;;;;;4.58;3.47;;;;;;;5.98;82.23;101690.58;2742491;84;21019;-85
2022/04/16 07:46:00;;;;;;;5.65;3.05;;;;;;;6.02;80.73;101705.89;2750303;84;21062;-85
2022/04/16 07:50:01;;;;;;;4.75;3.80;;;;;;;6.05;79.80;101689.91;2754015;84;21086;-88
2022/04/16 07:54:02;;;;;;;5.75;4.00;;;;;;;6.20;80.26;101700.31;2755827;85;21416;-86
2022/04/16 07:58:03;;;;;;;5.00;3.92;;;;;;;6.32;81.34;101693.66;2756518;85;21597;-86
2022/04/16 08:02:05;;;;;;;8.80;4.55;;;;;;;6.51;80.09;101697.25;2756535;86;20987;-82
2022/04/16 08:06:06;;;;;;;3.45;3.15;;;;;;;6.65;78.41;101704.59;2755406;84;21074;-86
2022/04/16 08:10:08;;;;;;;6.10;4.33;;;;;;;6.69;77.13;101699.59;2752767;84;21751;-82
2022/04/16 08:14:10;;;;;;;5.00;3.55;;;;;;;6.84;77.62;101703.35;2752823;84;21039;-84
2022/04/16 08:18:11;;;;;;;5.10;4.03;;;;;;;7.04;76.74;101710.00;2751835;85;21088;-84
2022/04/16 08:22:17;;;;;;;4.12;3.35;;;;;;;7.13;75.06;101706.97;2746966;85;21106;-84
2022/04/16 08:26:15;;;;;;;3.77;3.40;;;;;;;7.48;75.89;101720.39;2725556;86;21074;-80
2022/04/16 08:30:18;;;;;;;5.95;3.08;;;;;;;7.66;73.56;101714.70;2714479;85;28961;-84
2022/04/16 08:34:19;;;;;;;4.28;3.00;;;;;;;7.58;72.19;101721.67;2715499;85;21659;-83
2022/04/16 08:38:20;;;;;;;3.17;2.90;;;;;;;7.76;76.07;101725.72;2719069;86;21141;-84
2022/04/16 08:42:22;;;;;;;5.12;3.27;;;;;;;7.99;73.76;101723.31;2724543;85;21143;-87
2022/04/16 08:46:26;;;;;;;5.08;3.85;;;;;;;8.38;72.99;101729.38;2723229;86;21082;-85
2022/04/16 08:50:29;;;;;;;3.72;2.87;;;;;;;8.56;75.05;101719.70;2721695;86;21113;-85
2022/04/16 08:54:30;;;;;;;3.60;3.30;;;;;;;8.61;70.95;101718.11;2722557;86;21054;-85
2022/04/16 08:58:32;;;;;;;9.95;3.08;;;;;;;8.31;69.68;101721.35;2721999;86;21133;-87
2022/04/16 09:02:35;;;;;;;4.83;3.35;;;;;;;8.21;70.07;101718.75;2723993;86;21022;-85
2022/04/16 09:06:36;;;;;;;4.62;3.87;;;;;;;8.24;70.79;101718.59;2723970;86;21054;-85
2022/04/16 09:10:40;;;;;;;4.30;3.65;;;;;;;8.35;71.88;101725.56;2724306;86;21054;-85
2022/04/16 09:14:44;;;;;;;5.03;2.92;;;;;;;8.47;72.87;101712.64;2723294;85;21082;-85
2022/04/16 09:18:53;;;;;;;3.50;3.08;;;;;;;8.82;73.04;101713.97;2723863;86;21625;-87
2022/04/16 09:22:54;;;;;;;4.45;3.27;;;;;;;9.18;66.08;101718.30;2710740;85;21616;-86
2022/04/16 09:26:55;;;;;;;4.03;3.62;;;;;;;9.26;66.90;101704.16;2736807;85;20994;-83
2022/04/16 09:30:56;;;;;;;2.40;2.00;;;;;;;9.09;66.96;101729.41;2742620;84;21125;-82
2022/04/16 09:34:58;;;;;;;5.12;3.45;;;;;;;8.90;65.37;101726.39;2757290;84;21126;-83
2022/04/16 09:39:07;;;;;;;4.95;3.58;;;;;;;8.88;69.20;101730.92;2762105;84;21031;-83
2022/04/16 09:43:09;;;;;;;2.90;2.62;;;;;;;9.00;68.68;101729.42;2757213;86;21089;-83
2022/04/16 09:47:10;;;;;;;3.37;2.75;;;;;;;9.25;67.18;101719.70;2757053;84;21088;-85
2022/04/16 09:51:12;;;;;;;2.80;2.60;;;;;;;9.46;63.63;101714.17;2753992;85;21046;-85
2022/04/16 09:55:14;;;;;;;2.72;2.52;;;;;;;9.49;62.60;101724.63;2757364;84;21053;-83
2022/04/16 09:59:17;;;;;;;5.62;2.42;;;;;;;9.52;64.59;101732.42;2757565;84;21071;-84
2022/04/16 10:03:19;;;;;;;3.20;2.87;;;;;;;9.35;65.24;101736.00;2756811;85;21027;-83
2022/04/16 10:07:21;;;;;;;3.30;2.92;;;;;;;9.36;61.32;101732.86;2759768;84;21574;-85
2022/04/16 10:16:04;;;;;;;4.45;2.20;;;;;;;9.72;65.45;101739.28;2709164;87;21645;-85
2022/04/16 10:20:09;;;;;;;2.67;2.47;;;;;;;9.70;62.63;101745.64;2711579;86;21543;-84
2022/04/16 10:24:11;;;;;;;2.75;2.52;;;;;;;9.69;64.00;101736.80;2700539;86;21125;-83
2022/04/16 10:28:23;;;;;;;2.72;2.47;;;;;;;9.95;65.90;101737.63;2682834;87;21166;-83
2022/04/16 10:32:28;;;;;;;4.83;2.85;;;;;;;9.99;62.74;101755.99;2664266;87;21135;-80
2022/04/16 10:36:39;;;;;;;2.75;2.55;;;;;;;9.67;61.37;101742.67;2665651;88;21117;-83
2022/04/16 10:40:42;;;;;;;3.08;2.77;;;;;;;9.60;60.16;101729.80;2663095;88;21068;-82
2022/04/16 10:44:46;;;;;;;3.27;2.95;;;;;;;9.86;61.29;101742.98;2636683;88;21039;-82
2022/04/16 10:48:49;;;;;;;3.15;2.85;;;;;;;9.95;62.64;101739.83;2663233;88;21055;-85
2022/04/16 10:53:03;;;;;;;2.95;2.55;;;;;;;9.76;62.06;101741.31;2741540;84;21075;-92
2022/04/16 10:57:07;;;;;;;5.17;2.92;;;;;;;9.79;61.71;101739.81;2741401;84;21035;-92
2022/04/16 11:01:12;;;;;;;3.25;2.15;;;;;;;9.86;60.20;101749.17;2756015;84;21094;-91
2022/04/16 11:05:13;;;;;;;2.23;2.00;;;;;;;9.67;57.02;101748.48;2756544;84;20990;-91
2022/04/16 11:09:18;;;;;;;2.98;2.77;;;;;;;9.52;58.58;101731.55;2878209;78;21049;-86
2022/04/16 11:13:21;;;;;;;4.03;2.80;;;;;;;9.85;60.22;101734.63;2917558;80;21057;-85
2022/04/16 11:17:22;;;;;;;4.80;3.08;;;;;;;10.14;65.46;101740.97;2917403;80;21561;-85
2022/04/16 11:21:29;;;;;;;3.05;2.20;;;;;;;10.33;61.30;101739.91;2917330;80;21035;-86
2022/04/16 11:34:14;;;;;;;;;;;;;;;10.28;61.00;101749.97;2909899;80;21022;-85
2022/04/16 11:34:25;;;;;;;2.62;2.00;;;;;;;10.05;59.90;101740.17;2916379;80;21057;-86
2022/04/16 11:38:02;;;;;;;3.40;2.08;;;;;;;10.37;58.57;101747.25;2900688;80;21041;-89
2022/04/16 11:42:09;;;;;;;2.60;2.37;;;;;;;10.52;58.90;101749.06;2909483;80;21029;-84
2022/04/16 11:46:13;;;;;;;4.17;2.95;;;;;;;10.67;59.62;101751.29;2915497;80;21096;-90
2022/04/16 11:50:17;;;;;;;2.45;2.25;;;;;;;10.86;59.65;101735.56;2916997;80;21531;-93
2022/04/16 11:54:31;;;;;;;2.52;2.30;;;;;;;10.93;60.32;101744.88;2915547;79;21045;-82
2022/04/16 11:58:32;;;;;;;1.98;1.50;;;;;;;10.63;56.62;101747.10;2925974;80;21084;-91
2022/04/16 12:02:38;;;;;;;2.55;1.90;;;;;;;10.77;54.06;101749.40;2915932;80;20998;-87
2022/04/16 12:06:55;;;;;;;1.75;1.65;;;;;;;10.78;52.30;101751.11;2888245;78;21102;31
2022/04/16 12:10:59;;;;;;;2.20;1.77;;;;;;;10.95;59.25;101728.82;2833724;79;21589;-90
2022/04/16 12:15:02;;;;;;;2.50;2.20;;;;;;;11.14;56.22;101731.20;2850777;82;21079;-85
2022/04/16 12:19:04;;;;;;;2.58;2.37;;;;;;;11.25;57.64;101739.41;2806096;82;21000;-87
2022/04/16 12:23:05;;;;;;;2.80;2.60;;;;;;;11.25;54.92;101738.53;2806603;82;21027;-92
2022/04/16 12:27:06;;;;;;;6.45;2.60;;;;;;;11.29;55.74;101734.27;2810698;83;20980;-89
2022/04/16 12:31:07;;;;;;;3.92;2.45;;;;;;;11.24;56.40;101731.03;2821835;83;20968;-90
2022/04/16 12:35:09;;;;;;;4.60;2.20;;;;;;;11.19;58.87;101730.44;2821562;83;21499;-87
2022/04/16 12:39:10;;;;;;;3.02;2.72;;;;;;;11.30;57.25;101747.12;2829359;83;21101;-89
2022/04/16 12:43:11;;;;;;;7.30;2.30;;;;;;;11.56;56.37;101737.97;2831195;83;21055;-92
2022/04/16 12:47:13;;;;;;;5.55;2.40;;;;;;;11.68;53.89;101728.34;2842442;83;21583;-85
2022/04/16 12:51:15;;;;;;;2.92;2.10;;;;;;;11.36;53.22;101742.73;2833676;83;21027;-86
2022/04/16 12:55:16;;;;;;;2.75;2.55;;;;;;;11.61;53.20;101742.52;2829116;83;21078;-90
2022/04/16 12:59:18;;;;;;;3.37;2.70;;;;;;;11.50;54.95;101767.67;2844356;83;21055;-89
2022/04/16 13:03:19;;;;;;;3.67;2.10;;;;;;;11.38;55.28;101749.28;2837624;83;20959;-88
2022/04/16 13:07:22;;;;;;;3.50;2.85;;;;;;;11.38;53.01;101744.83;2822936;83;21015;-87
2022/04/16 13:11:23;;;;;;;3.08;2.80;;;;;;;11.54;55.47;101742.55;2835708;83;21633;-85
2022/04/16 13:15:24;;;;;;;3.50;2.50;;;;;;;11.32;53.94;101743.89;2832567;83;21095;-85
2022/04/16 13:19:25;;;;;;;7.72;4.12;;;;;;;11.12;54.68;101737.11;2822538;83;21035;-88
2022/04/16 13:23:26;;;;;;;3.47;3.17;;;;;;;11.37;55.20;101726.26;2830587;83;21024;-91
2022/04/16 13:27:30;;;;;;;4.35;3.75;;;;;;;11.67;55.17;101726.62;2782913;84;21024;-85
2022/04/16 13:31:31;;;;;;;3.40;3.15;;;;;;;11.81;56.93;101727.08;2824327;83;21562;-95
2022/04/16 13:35:32;;;;;;;4.47;3.40;;;;;;;11.53;56.23;101720.84;2885892;81;21604;-88
2022/04/16 13:43:52;;;;;;;5.37;3.15;;;;;;;11.65;52.93;101712.05;2881232;80;21066;-85
2022/04/16 13:47:56;;;;;;;2.92;2.52;;;;;;;11.73;51.04;101699.57;2893360;78;21114;-81
2022/04/16 13:52:00;;;;;;;2.80;2.60;;;;;;;11.55;56.07;101713.61;2845276;79;21149;-85
2022/04/16 13:56:02;;;;;;;3.33;3.02;;;;;;;11.69;55.79;101711.39;2897946;80;21054;-84
2022/04/16 14:00:05;;;;;;;5.22;3.08;;;;;;;11.80;54.94;101705.37;2885017;82;21057;-80
2022/04/16 14:04:06;;;;;;;7.75;2.72;;;;;;;11.81;54.82;101711.95;2909245;80;21654;-85
2022/04/16 14:08:07;;;;;;;3.37;2.42;;;;;;;12.02;54.90;101701.34;2893853;81;21074;-88
2022/04/16 14:12:09;;;;;;;2.83;2.62;;;;;;;11.85;53.05;101714.79;2902058;81;20987;-86
2022/04/16 14:16:11;;;;;;;2.35;2.25;;;;;;;11.80;52.24;101704.91;2910339;81;21030;-85
2022/04/16 14:20:12;;;;;;;2.33;2.12;;;;;;;11.98;51.91;101700.17;2917079;81;21069;-87
2022/04/16 14:24:13;;;;;;;4.92;2.42;;;;;;;12.03;52.36;101697.25;2913641;81;21050;-88
2022/04/16 14:28:15;;;;;;;4.90;2.87;;;;;;;12.00;53.80;101692.09;2914394;81;21066;-82
2022/04/16 14:32:16;;;;;;;2.50;2.22;;;;;;;11.90;55.97;101698.96;2906949;81;21074;-82
2022/04/16 14:36:18;;;;;;;5.10;3.33;;;;;;;11.86;53.88;101700.50;2898297;80;21018;-89
2022/04/16 14:40:19;;;;;;;2.98;2.42;;;;;;;12.01;50.63;101688.50;2914513;81;21006;-84
2022/04/16 14:44:21;;;;;;;3.65;3.30;;;;;;;12.05;54.90;101687.80;2920030;80;20999;-82
2022/04/16 14:48:22;;;;;;;5.30;3.12;;;;;;;11.86;53.12;101708.50;2913624;80;21082;-82
2022/04/16 14:52:25;;;;;;;3.92;2.35;;;;;;;11.81;51.63;101702.62;2913473;81;21042;-83
2022/04/16 14:56:27;;;;;;;2.65;2.45;;;;;;;11.97;53.52;101703.80;2902272;80;21006;-83
2022/04/16 15:00:28;;;;;;;2.77;2.58;;;;;;;12.16;53.79;101689.28;2910779;80;21470;-84
2022/04/16 15:04:29;;;;;;;3.50;3.17;;;;;;;12.37;54.83;101712.33;2880728;81;21010;-84
2022/04/16 15:08:30;;;;;;;3.27;2.30;;;;;;;12.13;52.71;101697.00;2876326;81;20967;-85
2022/04/16 15:12:31;;;;;;;2.87;2.47;;;;;;;11.90;52.98;101706.96;2830998;83;21475;-82
2022/04/16 15:16:33;;;;;;;3.58;2.52;;;;;;;12.01;54.52;101693.83;2911454;81;21047;-85
2022/04/16 15:20:36;;;;;;;5.00;2.85;;;;;;;12.14;52.09;101700.05;2879683;81;20998;-82
2022/04/16 15:24:37;;;;;;;3.33;3.00;;;;;;;12.05;53.07;101702.00;2873657;81;21097;-83
2022/04/16 16:07:17;;;;;;;3.10;2.85;;;;;;;11.79;51.27;101689.00;2782398;79;22268;-86
2022/04/16 16:11:21;;;;;;;5.35;3.00;;;;;;;11.76;50.97;101677.20;2788381;83;21054;-86
2022/04/16 16:15:22;;;;;;;2.87;2.47;;;;;;;11.49;51.75;101677.55;2795155;84;21066;-89
2022/04/16 16:19:23;;;;;;;2.70;2.50;;;;;;;11.42;51.92;101677.56;2752930;84;21068;-90
2022/04/16 16:23:24;;;;;;;3.58;3.27;;;;;;;11.55;53.16;101669.14;2766241;84;21049;-85
2022/04/16 16:27:26;;;;;;;2.83;2.62;;;;;;;11.66;52.97;101671.61;2760223;84;21079;-89
2022/04/16 16:31:28;;;;;;;3.60;2.42;;;;;;;11.69;51.14;101681.61;2742723;84;21095;-84
2022/04/16 16:35:29;;;;;;;2.70;2.50;;;;;;;11.70;52.90;101676.66;2784858;83;21411;-88
2022/04/16 16:39:30;;;;;;;2.72;2.50;;;;;;;11.65;51.95;101680.07;2777897;83;21673;-94
2022/04/16 16:43:34;;;;;;;3.22;2.25;;;;;;;11.63;52.46;101680.65;2736753;85;21051;-87
2022/04/16 16:47:36;;;;;;;2.45;2.25;;;;;;;11.58;54.27;101676.94;2717352;86;21028;-88
2022/04/16 16:51:37;;;;;;;9.20;3.60;;;;;;;11.44;53.53;101679.65;2812110;83;21637;-86
2022/04/16 16:55:39;;;;;;;3.52;2.87;;;;;;;11.45;55.67;101677.83;2810665;83;21030;-87
2022/04/16 16:59:41;;;;;;;4.85;2.83;;;;;;;11.39;54.17;101674.60;2812057;83;21030;-83
2022/04/16 17:08:01;;;;;;;5.33;3.83;;;;;;;11.45;55.41;101680.03;2795297;83;21118;-81
2022/04/16 17:12:03;;;;;;;3.75;2.55;;;;;;;11.43;55.55;101675.28;2787086;85;21020;-82
2022/04/16 17:20:25;;;;;;;6.55;3.47;;;;;;;11.25;53.93;101680.81;2784187;84;21129;-90
2022/04/16 17:24:30;;;;;;;4.53;3.00;;;;;;;11.12;54.76;101683.84;2790676;84;20960;-89
2022/04/16 17:28:32;;;;;;;3.98;3.00;;;;;;;11.00;55.82;101690.33;2767277;85;21082;-87
2022/04/16 17:32:33;;;;;;;2.55;2.25;;;;;;;10.84;56.28;101689.55;2758856;84;21066;-85
2022/04/16 17:36:34;;;;;;;3.42;2.17;;;;;;;10.67;56.55;101686.09;2770671;85;21369;-90
2022/04/16 17:40:35;;;;;;;3.67;2.72;;;;;;;10.46;56.44;101682.89;2766629;84;21045;-84
2022/04/16 17:44:38;;;;;;;2.70;2.50;;;;;;;10.29;56.95;101689.18;2758789;84;21106;-85
2022/04/16 17:48:45;;;;;;;2.45;2.25;;;;;;;10.17;57.36;101685.89;2755979;85;21086;-88
2022/04/16 17:52:44;;;;;;;2.67;2.47;;;;;;;10.02;57.44;101693.80;2786160;85;21039;-88
2022/04/16 17:56:45;;;;;;;2.55;2.12;;;;;;;9.87;57.94;101692.88;2786916;84;21047;-86
2022/04/16 18:00:46;;;;;;;2.70;1.85;;;;;;;9.76;57.59;101696.14;2789145;84;21028;-88
2022/04/16 18:04:48;;;;;;;2.85;2.12;;;;;;;9.68;57.42;101705.02;2786613;84;21543;-85
2022/04/16 18:08:49;;;;;;;3.45;2.72;;;;;;;9.60;58.00;101701.91;2796307;83;21043;-87
2022/04/16 18:12:50;;;;;;;5.72;3.85;;;;;;;9.51;58.33;101705.93;2812594;83;21015;-81
2022/04/16 18:16:51;;;;;;;3.52;3.05;;;;;;;9.37;59.42;101709.34;2809664;83;21082;-89
2022/04/16 18:20:52;;;;;;;4.90;3.77;;;;;;;9.17;59.95;101703.31;2796051;83;21106;-86
2022/04/16 18:24:53;;;;;;;11.20;6.25;;;;;;;9.03;60.44;101704.50;2792800;83;20968;-88
2022/04/16 18:28:54;;;;;;;8.08;5.72;;;;;;;8.91;61.10;101712.19;2814077;83;21585;-87
2022/04/16 18:32:56;;;;;;;12.40;8.58;;;;;;;8.80;61.69;101712.74;2810297;83;21090;-85
2022/04/16 18:36:58;;;;;;;9.73;5.72;;;;;;;8.73;62.09;101710.48;2812563;83;21063;-89
2022/04/16 18:41:00;;;;;;;9.45;6.22;;;;;;;8.57;63.25;101717.44;2791040;83;21007;-90
2022/04/16 18:45:01;;;;;;;12.25;8.13;;;;;;;8.42;64.00;101720.33;2799115;83;21030;-87
2022/04/16 18:49:03;;;;;;;12.35;8.28;;;;;;;8.28;64.23;101718.86;2803347;83;21027;-89
2022/04/16 18:53:05;;;;;;;16.75;10.35;;;;;;;8.17;64.34;101720.71;2809315;83;21439;-83
2022/04/16 18:57:09;;;;;;;15.80;8.43;;;;;;;8.12;64.22;101731.53;2803212;83;22092;-83
2022/04/16 19:09:49;;;;;;;13.20;8.33;;;;;;;8.07;65.59;101730.90;2800375;83;21028;-85
2022/04/16 19:13:51;;;;;;;12.10;7.03;;;;;;;7.91;65.57;101729.43;2779238;84;21054;-85
2022/04/16 19:17:55;;;;;;;8.75;6.08;;;;;;;7.82;66.26;101734.70;2767000;84;21058;-91
2022/04/16 19:21:56;;;;;;;14.47;7.65;;;;;;;7.73;66.78;101733.81;2788953;84;21091;-89
2022/04/16 19:25:57;;;;;;;22.82;13.70;;;;;;;7.68;67.10;101734.51;2788557;84;21047;-86
2022/04/16 19:29:58;;;;;;;33.73;22.85;;;;;;;7.69;66.74;101730.44;2755915;85;21075;-90
2022/04/16 19:33:59;;;;;;;23.85;15.68;;;;;;;7.76;65.76;101733.67;2777546;84;21083;-87
2022/04/16 19:38:01;;;;;;;40.30;25.55;;;;;;;7.85;65.46;101736.35;2788876;84;21096;-88
2022/04/16 19:42:03;;;;;;;40.50;23.10;;;;;;;7.92;64.74;101735.60;2788899;84;21078;-89
2022/04/16 19:46:05;;;;;;;26.93;15.60;;;;;;;7.97;64.30;101734.91;2789191;84;21007;-86
2022/04/16 19:50:07;;;;;;;21.55;14.75;;;;;;;8.02;63.92;101736.02;2766527;84;21039;-89
2022/04/16 19:54:08;;;;;;;20.32;15.55;;;;;;;7.99;64.62;101743.19;2774687;84;21090;-80
2022/04/16 19:58:10;;;;;;;25.48;13.40;;;;;;;8.01;63.68;101739.13;2780891;84;21078;-83
2022/04/16 20:02:11;;;;;;;29.35;16.93;;;;;;;7.96;64.47;101743.79;2763479;84;21008;-88
2022/04/16 20:06:13;;;;;;;23.83;14.78;;;;;;;7.95;65.45;101744.73;2765602;85;21047;-87
2022/04/16 20:14:34;;;;;;;25.37;17.65;;;;;;;7.81;65.90;101736.95;2749901;85;21566;-90
2022/04/16 20:18:35;;;;;;;29.23;19.48;;;;;;;7.78;65.80;101739.75;2750922;84;21654;-85
2022/04/16 20:22:40;;;;;;;35.43;22.48;;;;;;;7.46;68.48;101735.47;2751828;84;20999;-89